createdAt,value
2023-01-25T00:04:48.140Z,92.1
2023-01-25T00:09:48.116Z,91.9
2023-01-25T00:14:48.112Z,92.3
2023-01-25T00:19:48.135Z,92.0
2023-01-25T00:24:48.130Z,91.9
2023-01-25T00:29:48.134Z,92.2
2023-01-25T00:34:48.149Z,92.1
2023-01-25T00:39:48.127Z,92.2
2023-01-25T00:44:48.155Z,92.4
2023-01-25T00:49:48.141Z,92.3
2023-01-25T00:54:48.139Z,92.0
2023-01-25T00:59:48.152Z,91.9
2023-01-25T01:04:48.362Z,92.3
2023-01-25T01:09:48.143Z,92.1
2023-01-25T01:14:48.148Z,92.4
2023-01-25T01:19:48.147Z,92.6
2023-01-25T01:24:48.155Z,92.4
2023-01-25T01:29:48.153Z,92.3
2023-01-25T01:34:48.279Z,92.1
2023-01-25T01:39:48.178Z,92.4
2023-01-25T01:44:48.170Z,92.5
2023-01-25T01:49:48.171Z,92.2
2023-01-25T01:54:48.166Z,92.4
2023-01-25T01:59:48.172Z,92.4
2023-01-25T02:04:48.202Z,92.6
2023-01-25T02:09:48.173Z,92.7
2023-01-25T02:14:48.188Z,92.7
2023-01-25T02:19:48.184Z,92.6
2023-01-25T02:24:48.198Z,92.8
2023-01-25T02:29:48.187Z,93.0
2023-01-25T02:34:48.381Z,93.2
2023-01-25T02:39:48.197Z,93.1
2023-01-25T02:44:48.197Z,93.0
2023-01-25T02:49:48.200Z,93.1
2023-01-25T02:54:48.204Z,93.2
2023-01-25T02:59:48.206Z,92.8
2023-01-25T03:04:48.246Z,93.2
2023-01-25T03:09:48.212Z,93.2
2023-01-25T03:14:48.222Z,92.7
2023-01-25T03:19:48.221Z,92.9
2023-01-25T03:24:48.223Z,93.0
2023-01-25T03:29:48.223Z,92.9
2023-01-25T03:34:48.439Z,92.8
2023-01-25T03:39:48.227Z,93.1
2023-01-25T03:44:48.228Z,93.0
2023-01-25T03:49:48.246Z,93.2
2023-01-25T03:54:48.237Z,93.0
2023-01-25T03:59:48.248Z,93.1
2023-01-25T04:04:48.263Z,93.0
2023-01-25T04:09:48.239Z,93.0
2023-01-25T04:14:48.245Z,92.6
2023-01-25T04:19:48.248Z,92.9
2023-01-25T04:24:48.252Z,93.0
2023-01-25T04:29:48.257Z,92.9
2023-01-25T04:34:48.296Z,92.9
2023-01-25T04:39:48.268Z,93.2
2023-01-25T04:44:48.266Z,93.1
2023-01-25T04:49:48.259Z,93.4
2023-01-25T04:54:48.271Z,93.4
2023-01-25T04:59:48.265Z,93.3
2023-01-25T05:04:48.302Z,93.5
2023-01-25T05:09:48.277Z,93.5
2023-01-25T05:14:48.283Z,93.3
2023-01-25T05:19:48.284Z,93.3
2023-01-25T05:24:48.318Z,93.0
2023-01-25T05:29:48.285Z,93.5
2023-01-25T05:34:48.555Z,93.4
2023-01-25T05:39:48.312Z,93.2
2023-01-25T05:44:48.296Z,93.1
2023-01-25T05:49:48.299Z,93.0
2023-01-25T05:54:48.293Z,93.0
2023-01-25T05:59:48.304Z,93.1
2023-01-25T06:04:48.330Z,93.3
2023-01-25T06:09:48.309Z,93.3
2023-01-25T06:14:48.311Z,93.4
2023-01-25T06:19:48.315Z,93.5
2023-01-25T06:24:48.323Z,93.7
2023-01-25T06:29:48.330Z,93.4
2023-01-25T06:34:48.391Z,93.5
2023-01-25T06:39:48.331Z,93.4
2023-01-25T06:44:48.330Z,93.3
2023-01-25T06:49:48.326Z,93.3
2023-01-25T06:54:48.332Z,93.4
2023-01-25T06:59:48.333Z,93.7
2023-01-25T07:04:48.373Z,93.5
2023-01-25T07:09:48.354Z,93.6
2023-01-25T07:14:48.347Z,93.4
2023-01-25T07:19:48.338Z,93.5
2023-01-25T07:24:48.349Z,93.6
2023-01-25T07:29:48.346Z,93.4
2023-01-25T07:34:48.372Z,93.7
2023-01-25T07:39:48.362Z,93.6
2023-01-25T07:44:48.362Z,93.8
2023-01-25T07:49:48.361Z,93.9
2023-01-25T07:54:49.205Z,94.0
2023-01-25T07:59:48.365Z,93.8
2023-01-25T08:04:48.389Z,93.9
2023-01-25T08:09:48.365Z,93.9
2023-01-25T08:14:48.376Z,93.7
2023-01-25T08:19:48.375Z,93.8
2023-01-25T08:24:48.379Z,93.7
2023-01-25T08:29:48.399Z,93.8
2023-01-25T08:34:48.418Z,93.8
2023-01-25T08:39:48.391Z,93.8
2023-01-25T08:44:48.403Z,93.6
2023-01-25T08:49:48.394Z,93.7
2023-01-25T08:54:48.395Z,93.9
2023-01-25T08:59:48.395Z,93.8
2023-01-25T09:04:48.423Z,93.7
2023-01-25T09:09:48.401Z,93.8
2023-01-25T09:14:48.406Z,93.7
2023-01-25T09:19:48.408Z,93.6
2023-01-25T09:24:48.440Z,93.4
2023-01-25T09:30:01.059Z,93.7
2023-01-25T09:34:48.626Z,93.6
2023-01-25T09:39:48.430Z,93.6
2023-01-25T09:44:48.432Z,93.6
2023-01-25T09:49:48.422Z,93.3
2023-01-25T09:54:48.424Z,93.5
2023-01-25T09:59:48.445Z,93.4
2023-01-25T10:04:48.474Z,93.5
2023-01-25T10:09:48.495Z,92.8
2023-01-25T10:14:48.435Z,93.0
2023-01-25T10:19:48.499Z,92.9
2023-01-25T10:24:48.458Z,93.0
2023-01-25T10:29:48.500Z,93.0
2023-01-25T10:34:56.424Z,92.4
2023-01-25T10:39:48.460Z,92.6
2023-01-25T10:44:48.451Z,92.9
2023-01-25T10:49:48.491Z,92.7
2023-01-25T10:54:48.470Z,92.9
2023-01-25T10:59:48.462Z,93.0
2023-01-25T11:04:48.489Z,92.9
2023-01-25T11:09:48.463Z,92.6
2023-01-25T11:14:48.473Z,92.6
2023-01-25T11:19:48.483Z,92.6
2023-01-25T11:24:48.484Z,92.3
2023-01-25T11:29:48.481Z,92.2
2023-01-25T11:34:48.573Z,92.0
2023-01-25T11:39:48.505Z,92.1
2023-01-25T11:44:48.492Z,92.4
2023-01-25T11:49:48.492Z,91.9
2023-01-25T11:54:48.489Z,91.9
2023-01-25T11:59:48.496Z,92.0
2023-01-25T12:04:48.520Z,91.7
2023-01-25T12:09:48.498Z,91.9
2023-01-25T12:14:48.502Z,92.0
2023-01-25T12:19:48.507Z,92.0
2023-01-25T12:24:48.502Z,91.8
2023-01-25T12:29:48.504Z,92.0
2023-01-25T12:34:48.593Z,92.2
2023-01-25T12:39:48.519Z,91.8
2023-01-25T12:44:48.508Z,91.9
2023-01-25T12:49:48.519Z,92.0
2023-01-25T12:54:48.527Z,92.3
2023-01-25T12:59:48.517Z,92.4
2023-01-25T13:04:48.565Z,92.3
2023-01-25T13:09:48.528Z,92.5
2023-01-25T13:14:48.525Z,92.3
2023-01-25T13:19:48.537Z,92.0
2023-01-25T13:24:48.536Z,92.0
2023-01-25T13:29:48.541Z,92.2
2023-01-25T13:34:48.575Z,92.0
2023-01-25T13:39:48.550Z,91.9
2023-01-25T13:44:50.740Z,92.0
2023-01-25T13:49:48.555Z,91.8
2023-01-25T13:54:48.551Z,92.0
2023-01-25T13:59:49.626Z,92.1
2023-01-25T14:04:48.595Z,92.4
2023-01-25T14:09:48.577Z,92.5
2023-01-25T14:14:48.565Z,92.9
2023-01-25T14:19:48.595Z,92.7
2023-01-25T14:24:48.568Z,93.2
2023-01-25T14:29:48.613Z,93.4
2023-01-25T14:34:48.657Z,93.3
2023-01-25T14:39:48.571Z,93.2
2023-01-25T14:44:48.579Z,93.1
2023-01-25T14:49:48.594Z,93.1
2023-01-25T14:54:48.596Z,93.1
2023-01-25T14:59:48.597Z,93.4
2023-01-25T15:04:48.610Z,93.6
2023-01-25T15:09:48.589Z,93.4
2023-01-25T15:14:48.599Z,93.5
2023-01-25T15:19:48.601Z,93.9
2023-01-25T15:24:57.420Z,93.8
2023-01-25T15:29:48.601Z,93.9
2023-01-25T15:34:48.632Z,94.2
2023-01-25T15:39:48.609Z,94.2
2023-01-25T15:44:48.616Z,94.0
2023-01-25T15:49:48.633Z,94.4
2023-01-25T15:54:55.856Z,94.5
2023-01-25T15:59:48.627Z,94.4
2023-01-25T16:04:48.655Z,94.5
2023-01-25T16:09:48.624Z,94.9
2023-01-25T16:14:48.629Z,94.8
2023-01-25T16:19:48.637Z,94.8
2023-01-25T16:24:48.638Z,94.7
2023-01-25T16:29:48.644Z,94.7
2023-01-25T16:34:48.849Z,94.9
2023-01-25T16:39:48.647Z,94.9
2023-01-25T16:44:48.691Z,95.0
2023-01-25T16:49:48.651Z,95.1
2023-01-25T16:54:48.658Z,95.2
2023-01-25T16:59:48.662Z,95.2
2023-01-25T17:04:48.700Z,95.2
2023-01-25T17:09:48.655Z,95.1
2023-01-25T17:14:48.656Z,95.3
2023-01-25T17:19:48.665Z,95.5
2023-01-25T17:24:48.685Z,95.5
2023-01-25T17:29:48.662Z,95.4
2023-01-25T17:34:48.715Z,95.5
2023-01-25T17:39:48.674Z,95.5
2023-01-25T17:44:48.696Z,95.4
2023-01-25T17:49:48.701Z,95.7
2023-01-25T17:54:48.679Z,95.5
2023-01-25T17:59:48.689Z,95.6
2023-01-25T18:04:48.721Z,95.5
2023-01-25T18:09:48.686Z,95.6
2023-01-25T18:14:48.696Z,95.5
2023-01-25T18:19:48.696Z,95.9
2023-01-25T18:24:48.727Z,96.1
2023-01-25T18:29:48.699Z,96.1
2023-01-25T18:34:48.982Z,96.3
2023-01-25T18:39:48.709Z,96.4
2023-01-25T18:44:48.717Z,96.4
2023-01-25T18:49:48.709Z,96.5
2023-01-25T18:54:48.746Z,96.4
2023-01-25T18:59:48.715Z,96.5
2023-01-25T19:04:48.759Z,96.5
2023-01-25T19:09:48.774Z,96.8
2023-01-25T19:14:48.731Z,96.8
2023-01-25T19:19:48.726Z,96.8
2023-01-25T19:24:48.766Z,96.9
2023-01-25T19:29:48.734Z,97.3
2023-01-25T19:34:48.751Z,97.3
2023-01-25T19:39:48.735Z,97.7
2023-01-25T19:44:48.741Z,98.1
2023-01-25T19:49:48.739Z,98.8
2023-01-25T19:54:48.748Z,99.2
2023-01-25T19:59:48.745Z,99.4
2023-01-25T20:04:48.780Z,99.7
2023-01-25T20:09:48.745Z,100.0
2023-01-25T20:14:48.759Z,100.0
2023-01-25T20:19:48.762Z,100.0
2023-01-25T20:24:48.768Z,100.0
2023-01-25T20:29:48.758Z,100.0
2023-01-25T20:34:48.848Z,100.0
2023-01-25T20:39:48.763Z,100.0
2023-01-25T20:44:48.782Z,100.0
2023-01-25T20:49:48.781Z,100.0
2023-01-25T20:54:48.772Z,100.0
2023-01-25T20:59:48.781Z,100.0
2023-01-25T21:04:48.812Z,100.0
2023-01-25T21:09:48.781Z,100.0
2023-01-25T21:14:48.790Z,100.0
2023-01-25T21:19:48.819Z,100.0
2023-01-25T21:24:48.816Z,100.0
2023-01-25T21:29:48.796Z,100.0
2023-01-25T21:34:48.914Z,100.0
2023-01-25T21:39:48.802Z,100.0
2023-01-25T21:44:48.804Z,100.0
2023-01-25T21:49:48.805Z,100.0
2023-01-25T21:54:48.816Z,100.0
2023-01-25T21:59:48.924Z,100.0
2023-01-25T22:04:48.833Z,100.0
2023-01-25T22:09:48.819Z,100.0
2023-01-25T22:14:48.815Z,100.0
2023-01-25T22:19:48.815Z,100.0
2023-01-25T22:24:48.831Z,100.0
2023-01-25T22:29:48.822Z,100.0
2023-01-25T22:34:49.000Z,100.0
2023-01-25T22:39:48.835Z,100.0
2023-01-25T22:44:48.840Z,100.0
2023-01-25T22:49:48.865Z,100.0
2023-01-25T22:54:48.842Z,100.0
2023-01-25T22:59:48.859Z,100.0
2023-01-25T23:04:48.949Z,100.0
2023-01-25T23:09:48.843Z,100.0
2023-01-25T23:14:48.847Z,100.0
2023-01-25T23:19:48.860Z,100.0
2023-01-25T23:24:48.864Z,100.0
2023-01-25T23:29:48.854Z,100.0
2023-01-25T23:34:48.889Z,100.0
2023-01-25T23:39:48.862Z,100.0
2023-01-25T23:44:48.855Z,100.0
2023-01-25T23:49:48.865Z,100.0
2023-01-25T23:54:48.876Z,100.0
2023-01-25T23:59:48.885Z,100.0
